PRIVATE WETTERSTATION BILLIGHEIM-ALLFELD                       ZURCK
Wetterdaten: Mittwoch, 09.04.2014
Datum Zeit Temp. A. Temp. A. min Temp. A. max Feuchte A. Luftdruck Regen Wind Richtung Richtung Sonnenschein ET Solar Taupunkt Windchill Windben Empfang
09.04.2014 00:00 9,1 C 9,1 C 9,2 C 62 % 1022,3 hPa 0,0 l/m 11,3 km/h (2 Bft) W-NW 292 0 min 0,051 mm 0 W/m 2,2 C 5,9 C 29,0 km/h (5 Bft) 99 %
09.04.2014 00:10 8,9 C 8,9 C 9,1 C 62 % 1022,3 hPa 0,0 l/m 8,0 km/h (2 Bft) W-NW 292 0 min 0,000 mm 0 W/m 2,0 C 7,7 C 16,1 km/h (3 Bft) 100 %
09.04.2014 00:20 8,8 C 8,8 C 8,9 C 63 % 1022,4 hPa 0,0 l/m 4,8 km/h (1 Bft) NW 315 0 min 0,000 mm 0 W/m 2,2 C 8,8 C 14,5 km/h (3 Bft) 100 %
09.04.2014 00:30 8,7 C 8,7 C 8,8 C 64 % 1022,5 hPa 0,0 l/m 4,8 km/h (1 Bft) W-NW 292 0 min 0,000 mm 0 W/m 2,3 C 8,7 C 16,1 km/h (3 Bft) 100 %
09.04.2014 00:40 8,6 C 8,6 C 8,7 C 64 % 1022,5 hPa 0,0 l/m 4,8 km/h (1 Bft) W-NW 292 0 min 0,000 mm 0 W/m 2,2 C 8,6 C 14,5 km/h (3 Bft) 100 %
09.04.2014 00:50 8,5 C 8,5 C 8,6 C 64 % 1022,7 hPa 0,0 l/m 4,8 km/h (1 Bft) W-NW 292 0 min 0,000 mm 0 W/m 2,1 C 8,5 C 9,7 km/h (2 Bft) 100 %
09.04.2014 01:00 8,5 C 8,4 C 8,5 C 65 % 1023,1 hPa 0,0 l/m 6,4 km/h (2 Bft) W-NW 292 0 min 0,025 mm 0 W/m 2,3 C 8,5 C 24,1 km/h (4 Bft) 100 %
09.04.2014 01:10 7,2 C 7,2 C 8,5 C 71 % 1023,4 hPa 0,4 l/m 19,3 km/h (3 Bft) NW 315 0 min 0,000 mm 0 W/m 2,3 C -0,1 C 41,8 km/h (6 Bft) 100 %
09.04.2014 01:20 6,4 C 6,4 C 7,2 C 76 % 1023,3 hPa 0,0 l/m 6,4 km/h (2 Bft) NW 315 0 min 0,000 mm 0 W/m 2,5 C 6,4 C 20,9 km/h (4 Bft) 100 %
09.04.2014 01:30 6,1 C 6,1 C 6,4 C 77 % 1023,3 hPa 0,0 l/m 6,4 km/h (2 Bft) W-NW 292 0 min 0,000 mm 0 W/m 2,4 C 6,1 C 16,1 km/h (3 Bft) 100 %
09.04.2014 01:40 6,1 C 6,1 C 6,1 C 78 % 1023,3 hPa 0,0 l/m 4,8 km/h (1 Bft) W-NW 292 0 min 0,000 mm 0 W/m 2,6 C 6,1 C 16,1 km/h (3 Bft) 99 %
09.04.2014 01:50 6,0 C 6,0 C 6,1 C 78 % 1023,2 hPa 0,0 l/m 1,6 km/h (1 Bft) W-NW 292 0 min 0,000 mm 0 W/m 2,5 C 6,0 C 11,3 km/h (2 Bft) 100 %
09.04.2014 02:00 5,9 C 5,9 C 6,0 C 79 % 1023,2 hPa 0,0 l/m 0,0 km/h (0 Bft) W 270 0 min 0,025 mm 0 W/m 2,5 C 5,9 C 4,8 km/h (1 Bft) 100 %
09.04.2014 02:10 5,7 C 5,7 C 5,9 C 80 % 1023,4 hPa 0,0 l/m 1,6 km/h (1 Bft) W 270 0 min 0,000 mm 0 W/m 2,5 C 5,7 C 6,4 km/h (2 Bft) 100 %
09.04.2014 02:20 5,7 C 5,7 C 5,7 C 81 % 1023,5 hPa 0,0 l/m 0,0 km/h (0 Bft) W 270 0 min 0,000 mm 0 W/m 2,7 C 5,7 C 4,8 km/h (1 Bft) 100 %
09.04.2014 02:30 5,6 C 5,6 C 5,7 C 81 % 1023,5 hPa 0,0 l/m 0,0 km/h (0 Bft) W 270 0 min 0,000 mm 0 W/m 2,6 C 5,6 C 3,2 km/h (1 Bft) 88 %
09.04.2014 02:40 5,5 C 5,5 C 5,6 C 81 % 1023,5 hPa 0,0 l/m 0,0 km/h (0 Bft) W 270 0 min 0,000 mm 0 W/m 2,5 C 5,5 C 3,2 km/h (1 Bft) 100 %
09.04.2014 02:50 5,5 C 5,5 C 5,5 C 81 % 1023,5 hPa 0,0 l/m 0,0 km/h (0 Bft) W 270 0 min 0,000 mm 0 W/m 2,5 C 5,5 C 3,2 km/h (1 Bft) 100 %
09.04.2014 03:00 5,5 C 5,4 C 5,5 C 81 % 1023,5 hPa 0,0 l/m 0,0 km/h (0 Bft) W 270 0 min 0,000 mm 0 W/m 2,5 C 5,5 C 1,6 km/h (1 Bft) 100 %
09.04.2014 03:10 5,4 C 5,4 C 5,5 C 81 % 1023,6 hPa 0,0 l/m 0,0 km/h (0 Bft) W 270 0 min 0,000 mm 0 W/m 2,4 C 5,4 C 4,8 km/h (1 Bft) 100 %
09.04.2014 03:20 5,3 C 5,3 C 5,4 C 81 % 1023,7 hPa 0,0 l/m 0,0 km/h (0 Bft) W-NW 292 0 min 0,000 mm 0 W/m 2,3 C 5,3 C 4,8 km/h (1 Bft) 100 %
09.04.2014 03:30 5,2 C 5,2 C 5,3 C 82 % 1023,7 hPa 0,0 l/m 1,6 km/h (1 Bft) W-NW 292 0 min 0,000 mm 0 W/m 2,4 C 5,2 C 8,0 km/h (2 Bft) 100 %
09.04.2014 03:40 5,1 C 5,1 C 5,2 C 83 % 1023,7 hPa 0,0 l/m 1,6 km/h (1 Bft) NW 315 0 min 0,000 mm 0 W/m 2,5 C 5,1 C 8,0 km/h (2 Bft) 100 %
09.04.2014 03:50 5,2 C 5,2 C 5,2 C 83 % 1023,7 hPa 0,0 l/m 1,6 km/h (1 Bft) W-NW 292 0 min 0,000 mm 0 W/m 2,6 C 5,2 C 6,4 km/h (2 Bft) 100 %
09.04.2014 04:00 5,2 C 5,2 C 5,2 C 82 % 1023,7 hPa 0,0 l/m 1,6 km/h (1 Bft) W 270 0 min 0,000 mm 0 W/m 2,4 C 5,2 C 4,8 km/h (1 Bft) 100 %
09.04.2014 04:10 5,1 C 5,1 C 5,2 C 83 % 1023,8 hPa 0,0 l/m 3,2 km/h (1 Bft) W 270 0 min 0,000 mm 0 W/m 2,5 C 5,1 C 8,0 km/h (2 Bft) 100 %
09.04.2014 04:20 4,9 C 4,9 C 5,1 C 83 % 1023,9 hPa 0,0 l/m 1,6 km/h (1 Bft) W 270 0 min 0,000 mm 0 W/m 2,3 C 4,9 C 8,0 km/h (2 Bft) 100 %
09.04.2014 04:30 4,9 C 4,9 C 4,9 C 83 % 1024,0 hPa 0,0 l/m 0,0 km/h (0 Bft) W 270 0 min 0,000 mm 0 W/m 2,3 C 4,9 C 4,8 km/h (1 Bft) 100 %
09.04.2014 04:40 4,9 C 4,9 C 5,0 C 83 % 1024,1 hPa 0,0 l/m 0,0 km/h (0 Bft) W 270 0 min 0,000 mm 0 W/m 2,3 C 4,9 C 3,2 km/h (1 Bft) 100 %
09.04.2014 04:50 4,9 C 4,8 C 5,0 C 83 % 1024,2 hPa 0,0 l/m 0,0 km/h (0 Bft) W 270 0 min 0,000 mm 0 W/m 2,3 C 4,9 C 1,6 km/h (1 Bft) 100 %
09.04.2014 05:00 4,7 C 4,7 C 4,8 C 83 % 1024,1 hPa 0,0 l/m 0,0 km/h (0 Bft) W 270 0 min 0,000 mm 0 W/m 2,1 C 4,7 C 1,6 km/h (1 Bft) 100 %
09.04.2014 05:10 4,6 C 4,6 C 4,7 C 84 % 1024,1 hPa 0,0 l/m 0,0 km/h (0 Bft) W 270 0 min 0,000 mm 0 W/m 2,1 C 4,6 C 1,6 km/h (1 Bft) 100 %
09.04.2014 05:20 4,6 C 4,6 C 4,6 C 84 % 1024,2 hPa 0,0 l/m 0,0 km/h (0 Bft) W 270 0 min 0,000 mm 0 W/m 2,1 C 4,6 C 4,8 km/h (1 Bft) 100 %
09.04.2014 05:30 4,6 C 4,6 C 4,6 C 84 % 1024,3 hPa 0,0 l/m 0,0 km/h (0 Bft) W 270 0 min 0,000 mm 0 W/m 2,1 C 4,6 C 3,2 km/h (1 Bft) 100 %
09.04.2014 05:40 4,6 C 4,6 C 4,7 C 85 % 1024,4 hPa 0,0 l/m 0,0 km/h (0 Bft) W 270 0 min 0,000 mm 0 W/m 2,3 C 4,6 C 1,6 km/h (1 Bft) 100 %
09.04.2014 05:50 4,6 C 4,6 C 4,6 C 84 % 1024,4 hPa 0,0 l/m 0,0 km/h (0 Bft) W 270 0 min 0,000 mm 0 W/m 2,1 C 4,6 C 3,2 km/h (1 Bft) 100 %
09.04.2014 06:00 4,6 C 4,6 C 4,6 C 84 % 1024,5 hPa 0,0 l/m 0,0 km/h (0 Bft) W 270 0 min 0,000 mm 0 W/m 2,1 C 4,6 C 3,2 km/h (1 Bft) 100 %
09.04.2014 06:10 4,5 C 4,5 C 4,6 C 84 % 1024,4 hPa 0,0 l/m 0,0 km/h (0 Bft) W 270 0 min 0,000 mm 0 W/m 2,0 C 4,5 C 3,2 km/h (1 Bft) 100 %
09.04.2014 06:20 4,4 C 4,4 C 4,5 C 84 % 1024,4 hPa 0,0 l/m 0,0 km/h (0 Bft) W 270 0 min 0,000 mm 0 W/m 1,9 C 4,4 C 4,8 km/h (1 Bft) 100 %
09.04.2014 06:30 4,4 C 4,4 C 4,4 C 84 % 1024,4 hPa 0,0 l/m 0,0 km/h (0 Bft) S-SO 157 0 min 0,000 mm 0 W/m 1,9 C 4,4 C 3,2 km/h (1 Bft) 100 %
09.04.2014 06:40 4,3 C 4,3 C 4,4 C 85 % 1024,4 hPa 0,0 l/m 0,0 km/h (0 Bft) S-SO 157 0 min 0,000 mm 0 W/m 2,0 C 4,3 C 4,8 km/h (1 Bft) 100 %
09.04.2014 06:50 4,2 C 4,2 C 4,3 C 85 % 1024,4 hPa 0,0 l/m 0,0 km/h (0 Bft) S-SO 157 0 min 0,000 mm 5 W/m 1,9 C 4,2 C 4,8 km/h (1 Bft) 100 %
09.04.2014 07:00 4,1 C 4,1 C 4,2 C 85 % 1024,5 hPa 0,0 l/m 0,0 km/h (0 Bft) S-SO 157 0 min 0,000 mm 9 W/m 1,8 C 4,1 C 4,8 km/h (1 Bft) 99 %
09.04.2014 07:10 3,9 C 3,9 C 4,1 C 86 % 1024,6 hPa 0,0 l/m 0,0 km/h (0 Bft) S-SO 157 0 min 0,000 mm 12 W/m 1,8 C 3,9 C 4,8 km/h (1 Bft) 100 %
09.04.2014 07:20 3,8 C 3,8 C 3,9 C 86 % 1024,8 hPa 0,0 l/m 0,0 km/h (0 Bft) S-SO 157 0 min 0,000 mm 19 W/m 1,7 C 3,8 C 3,2 km/h (1 Bft) 100 %
09.04.2014 07:30 3,8 C 3,8 C 3,8 C 86 % 1024,8 hPa 0,0 l/m 0,0 km/h (0 Bft) S-SO 157 0 min 0,000 mm 25 W/m 1,7 C 3,8 C 4,8 km/h (1 Bft) 100 %
09.04.2014 07:40 3,9 C 3,8 C 3,9 C 86 % 1025,0 hPa 0,0 l/m 1,6 km/h (1 Bft) S-SO 157 0 min 0,000 mm 28 W/m 1,8 C 3,9 C 4,8 km/h (1 Bft) 100 %
09.04.2014 07:50 4,1 C 3,9 C 4,1 C 86 % 1025,1 hPa 0,0 l/m 0,0 km/h (0 Bft) S-SO 157 0 min 0,000 mm 32 W/m 2,0 C 4,1 C 4,8 km/h (1 Bft) 90 %
09.04.2014 08:00 4,3 C 4,1 C 4,3 C 86 % 1025,2 hPa 0,0 l/m 1,6 km/h (1 Bft) S-SO 157 0 min 0,000 mm 33 W/m 2,2 C 4,3 C 6,4 km/h (2 Bft) 100 %
09.04.2014 08:10 4,4 C 4,3 C 4,4 C 86 % 1025,3 hPa 0,0 l/m 1,6 km/h (1 Bft) S-SO 157 0 min 0,000 mm 37 W/m 2,3 C 4,4 C 6,4 km/h (2 Bft) 100 %
09.04.2014 08:20 4,5 C 4,4 C 4,5 C 86 % 1025,4 hPa 0,0 l/m 0,0 km/h (0 Bft) S-SO 157 0 min 0,000 mm 58 W/m 2,4 C 4,5 C 8,0 km/h (2 Bft) 99 %
09.04.2014 08:30 4,9 C 4,5 C 4,9 C 87 % 1025,4 hPa 0,0 l/m 1,6 km/h (1 Bft) S 180 10 min 0,000 mm 171 W/m 2,9 C 4,9 C 9,7 km/h (2 Bft) 99 %
09.04.2014 08:40 5,8 C 4,9 C 5,8 C 86 % 1025,5 hPa 0,0 l/m 1,6 km/h (1 Bft) SW 225 10 min 0,000 mm 230 W/m 3,6 C 5,8 C 9,7 km/h (2 Bft) 100 %
09.04.2014 08:50 6,7 C 5,8 C 6,7 C 83 % 1025,5 hPa 0,0 l/m 1,6 km/h (1 Bft) S-SW 202 10 min 0,000 mm 258 W/m 4,0 C 6,7 C 8,0 km/h (2 Bft) 100 %
09.04.2014 09:00 7,3 C 6,7 C 7,3 C 79 % 1025,5 hPa 0,0 l/m 3,2 km/h (1 Bft) SW 225 10 min 0,051 mm 297 W/m 3,9 C 7,3 C 14,5 km/h (3 Bft) 100 %
09.04.2014 09:10 7,9 C 7,3 C 7,9 C 77 % 1025,6 hPa 0,0 l/m 3,2 km/h (1 Bft) W 270 10 min 0,000 mm 332 W/m 4,1 C 7,9 C 14,5 km/h (3 Bft) 100 %
09.04.2014 09:20 8,4 C 7,9 C 8,4 C 77 % 1025,7 hPa 0,0 l/m 1,6 km/h (1 Bft) W-NW 292 10 min 0,000 mm 364 W/m 4,6 C 8,4 C 8,0 km/h (2 Bft) 100 %
09.04.2014 09:30 8,7 C 8,4 C 8,7 C 73 % 1025,7 hPa 0,0 l/m 3,2 km/h (1 Bft) W-NW 292 10 min 0,000 mm 390 W/m 4,1 C 8,7 C 11,3 km/h (2 Bft) 100 %
09.04.2014 09:40 8,7 C 8,6 C 8,7 C 73 % 1025,7 hPa 0,0 l/m 4,8 km/h (1 Bft) W-SW 247 10 min 0,000 mm 445 W/m 4,1 C 8,7 C 16,1 km/h (3 Bft) 100 %
09.04.2014 09:50 8,9 C 8,7 C 9,0 C 72 % 1025,9 hPa 0,0 l/m 4,8 km/h (1 Bft) W-SW 247 10 min 0,000 mm 496 W/m 4,1 C 8,9 C 17,7 km/h (3 Bft) 100 %
09.04.2014 10:00 9,3 C 8,9 C 9,3 C 72 % 1025,9 hPa 0,0 l/m 3,2 km/h (1 Bft) W-SW 247 10 min 0,178 mm 512 W/m 4,5 C 9,3 C 17,7 km/h (3 Bft) 100 %
09.04.2014 10:10 9,1 C 9,1 C 9,3 C 71 % 1025,8 hPa 0,0 l/m 8,0 km/h (2 Bft) W 270 10 min 0,000 mm 513 W/m 4,1 C 7,9 C 19,3 km/h (3 Bft) 100 %
09.04.2014 10:20 9,6 C 9,1 C 9,6 C 76 % 1025,8 hPa 0,0 l/m 4,8 km/h (1 Bft) W-SW 247 10 min 0,000 mm 605 W/m 5,6 C 9,6 C 16,1 km/h (3 Bft) 100 %
09.04.2014 10:30 9,7 C 9,6 C 9,8 C 69 % 1025,9 hPa 0,0 l/m 6,4 km/h (2 Bft) W-SW 247 10 min 0,000 mm 643 W/m 4,3 C 9,7 C 14,5 km/h (3 Bft) 100 %
09.04.2014 10:40 9,7 C 9,7 C 9,8 C 70 % 1025,9 hPa 0,0 l/m 8,0 km/h (2 Bft) SW 225 10 min 0,000 mm 680 W/m 4,5 C 8,5 C 22,5 km/h (4 Bft) 100 %
09.04.2014 10:50 9,7 C 9,7 C 9,9 C 68 % 1025,8 hPa 0,0 l/m 9,7 km/h (2 Bft) SW 225 10 min 0,000 mm 677 W/m 4,1 C 7,4 C 19,3 km/h (3 Bft) 100 %
09.04.2014 11:00 9,7 C 9,6 C 9,7 C 67 % 1025,9 hPa 0,0 l/m 6,4 km/h (2 Bft) S-SW 202 10 min 0,229 mm 759 W/m 3,9 C 9,7 C 19,3 km/h (3 Bft) 100 %
09.04.2014 11:10 9,6 C 9,6 C 9,7 C 66 % 1025,9 hPa 0,0 l/m 6,4 km/h (2 Bft) SW 225 10 min 0,000 mm 294 W/m 3,6 C 9,6 C 17,7 km/h (3 Bft) 100 %
09.04.2014 11:20 9,6 C 9,6 C 9,6 C 65 % 1025,9 hPa 0,0 l/m 6,4 km/h (2 Bft) W 270 10 min 0,000 mm 705 W/m 3,4 C 9,6 C 17,7 km/h (3 Bft) 90 %
09.04.2014 11:30 10,1 C 9,6 C 10,1 C 64 % 1025,8 hPa 0,0 l/m 6,4 km/h (2 Bft) W 270 10 min 0,000 mm 795 W/m 3,6 C 10,1 C 22,5 km/h (4 Bft) 100 %
09.04.2014 11:40 10,3 C 10,1 C 10,3 C 60 % 1025,7 hPa 0,0 l/m 9,7 km/h (2 Bft) W 270 10 min 0,000 mm 367 W/m 2,9 C 8,1 C 22,5 km/h (4 Bft) 100 %
09.04.2014 11:50 10,3 C 10,3 C 10,3 C 60 % 1025,6 hPa 0,0 l/m 9,7 km/h (2 Bft) W-SW 247 10 min 0,000 mm 404 W/m 2,9 C 8,1 C 27,4 km/h (4 Bft) 100 %
09.04.2014 12:00 10,3 C 10,2 C 10,3 C 61 % 1025,6 hPa 0,0 l/m 9,7 km/h (2 Bft) W 270 10 min 0,203 mm 269 W/m 3,1 C 8,1 C 19,3 km/h (3 Bft) 100 %
09.04.2014 12:10 10,5 C 10,3 C 10,6 C 58 % 1025,6 hPa 0,0 l/m 11,3 km/h (2 Bft) W 270 10 min 0,000 mm 819 W/m 2,6 C 7,4 C 25,7 km/h (4 Bft) 100 %
09.04.2014 12:20 10,5 C 10,5 C 10,6 C 59 % 1025,4 hPa 0,0 l/m 8,0 km/h (2 Bft) W-SW 247 10 min 0,000 mm 311 W/m 2,8 C 9,4 C 22,5 km/h (4 Bft) 100 %
09.04.2014 12:30 10,6 C 10,5 C 10,6 C 58 % 1025,4 hPa 0,0 l/m 11,3 km/h (2 Bft) SW 225 10 min 0,000 mm 306 W/m 2,7 C 7,6 C 29,0 km/h (5 Bft) 100 %
09.04.2014 12:40 11,3 C 10,6 C 11,3 C 55 % 1025,4 hPa 0,0 l/m 11,3 km/h (2 Bft) W 270 10 min 0,000 mm 851 W/m 2,6 C 8,4 C 32,2 km/h (5 Bft) 100 %
09.04.2014 12:50 11,5 C 11,3 C 11,5 C 53 % 1025,4 hPa 0,0 l/m 6,4 km/h (2 Bft) W 270 10 min 0,000 mm 439 W/m 2,3 C 11,5 C 14,5 km/h (3 Bft) 100 %
09.04.2014 13:00 11,2 C 11,2 C 11,5 C 50 % 1025,2 hPa 0,0 l/m 12,9 km/h (3 Bft) W 270 10 min 0,254 mm 751 W/m 1,2 C 7,5 C 25,7 km/h (4 Bft) 100 %
09.04.2014 13:10 11,3 C 11,2 C 11,3 C 51 % 1025,4 hPa 0,0 l/m 11,3 km/h (2 Bft) W-NW 292 10 min 0,000 mm 369 W/m 1,5 C 8,4 C 27,4 km/h (4 Bft) 100 %
09.04.2014 13:20 11,4 C 11,3 C 11,4 C 52 % 1025,2 hPa 0,0 l/m 9,7 km/h (2 Bft) W 270 10 min 0,000 mm 814 W/m 1,9 C 9,3 C 24,1 km/h (4 Bft) 100 %
09.04.2014 13:30 11,5 C 11,4 C 11,6 C 52 % 1025,2 hPa 0,0 l/m 12,9 km/h (3 Bft) W-NW 292 10 min 0,000 mm 457 W/m 2,0 C 7,8 C 22,5 km/h (4 Bft) 100 %
09.04.2014 13:40 11,4 C 11,4 C 11,5 C 52 % 1025,1 hPa 0,0 l/m 11,3 km/h (2 Bft) W-NW 292 10 min 0,000 mm 264 W/m 1,9 C 8,5 C 30,6 km/h (5 Bft) 100 %
09.04.2014 13:50 11,6 C 11,3 C 11,6 C 52 % 1025,1 hPa 0,0 l/m 8,0 km/h (2 Bft) W 270 10 min 0,000 mm 323 W/m 2,1 C 10,5 C 20,9 km/h (4 Bft) 100 %
09.04.2014 14:00 11,6 C 11,6 C 11,6 C 53 % 1025,1 hPa 0,0 l/m 11,3 km/h (2 Bft) NW 315 10 min 0,229 mm 274 W/m 2,4 C 8,7 C 27,4 km/h (4 Bft) 100 %
09.04.2014 14:10 12,6 C 11,6 C 12,6 C 51 % 1024,9 hPa 0,0 l/m 12,9 km/h (3 Bft) W-NW 292 10 min 0,000 mm 868 W/m 2,7 C 9,1 C 27,4 km/h (4 Bft) 100 %
09.04.2014 14:20 12,5 C 12,5 C 12,7 C 50 % 1024,8 hPa 0,0 l/m 8,0 km/h (2 Bft) W 270 10 min 0,000 mm 345 W/m 2,4 C 11,5 C 25,7 km/h (4 Bft) 100 %
09.04.2014 14:30 12,1 C 12,1 C 12,5 C 53 % 1024,7 hPa 0,0 l/m 16,1 km/h (3 Bft) W-NW 292 10 min 0,000 mm 756 W/m 2,8 C 7,3 C 29,0 km/h (5 Bft) 100 %
09.04.2014 14:40 12,4 C 12,1 C 12,4 C 50 % 1024,5 hPa 0,0 l/m 8,0 km/h (2 Bft) W-NW 292 10 min 0,000 mm 763 W/m 2,3 C 11,4 C 20,9 km/h (4 Bft) 100 %
09.04.2014 14:50 12,8 C 12,4 C 12,8 C 48 % 1024,3 hPa 0,0 l/m 9,7 km/h (2 Bft) W 270 10 min 0,000 mm 867 W/m 2,1 C 10,8 C 27,4 km/h (4 Bft) 99 %
09.04.2014 15:00 13,4 C 12,8 C 13,4 C 47 % 1024,2 hPa 0,0 l/m 9,7 km/h (2 Bft) W-NW 292 10 min 0,330 mm 865 W/m 2,3 C 11,5 C 24,1 km/h (4 Bft) 100 %
09.04.2014 15:10 13,9 C 13,4 C 14,0 C 43 % 1024,1 hPa 0,0 l/m 8,0 km/h (2 Bft) W-NW 292 10 min 0,000 mm 846 W/m 1,5 C 12,9 C 27,4 km/h (4 Bft) 100 %
09.04.2014 15:20 13,8 C 13,8 C 13,9 C 44 % 1024,1 hPa 0,0 l/m 14,5 km/h (3 Bft) W-SW 247 10 min 0,000 mm 803 W/m 1,8 C 9,9 C 30,6 km/h (5 Bft) 100 %
09.04.2014 15:30 14,1 C 13,8 C 14,1 C 42 % 1023,8 hPa 0,0 l/m 12,9 km/h (3 Bft) W-NW 292 10 min 0,000 mm 754 W/m 1,4 C 10,9 C 27,4 km/h (4 Bft) 100 %
09.04.2014 15:40 14,1 C 14,1 C 14,1 C 43 % 1023,9 hPa 0,0 l/m 14,5 km/h (3 Bft) W 270 10 min 0,000 mm 712 W/m 1,7 C 10,3 C 25,7 km/h (4 Bft) 100 %
09.04.2014 15:50 13,9 C 13,9 C 14,1 C 43 % 1023,8 hPa 0,0 l/m 11,3 km/h (2 Bft) W-NW 292 10 min 0,000 mm 738 W/m 1,5 C 11,3 C 30,6 km/h (5 Bft) 100 %
09.04.2014 16:00 13,3 C 13,3 C 13,9 C 45 % 1023,8 hPa 0,0 l/m 11,3 km/h (2 Bft) W 270 10 min 0,381 mm 274 W/m 1,6 C 10,6 C 27,4 km/h (4 Bft) 100 %
09.04.2014 16:10 13,2 C 13,1 C 13,3 C 47 % 1023,8 hPa 0,0 l/m 6,4 km/h (2 Bft) W 270 10 min 0,000 mm 749 W/m 2,1 C 13,2 C 14,5 km/h (3 Bft) 100 %
09.04.2014 16:20 13,7 C 13,2 C 13,7 C 45 % 1023,7 hPa 0,0 l/m 12,9 km/h (3 Bft) NW 315 10 min 0,000 mm 694 W/m 2,0 C 10,4 C 27,4 km/h (4 Bft) 100 %
09.04.2014 16:30 13,7 C 13,7 C 13,7 C 46 % 1023,7 hPa 0,0 l/m 9,7 km/h (2 Bft) W 270 10 min 0,000 mm 629 W/m 2,3 C 11,8 C 22,5 km/h (4 Bft) 100 %
09.04.2014 16:40 13,4 C 13,4 C 13,7 C 45 % 1023,7 hPa 0,0 l/m 6,4 km/h (2 Bft) W 270 10 min 0,000 mm 253 W/m 1,7 C 13,4 C 16,1 km/h (3 Bft) 100 %
09.04.2014 16:50 13,3 C 13,3 C 13,4 C 45 % 1023,6 hPa 0,0 l/m 8,0 km/h (2 Bft) W-NW 292 10 min 0,000 mm 272 W/m 1,6 C 12,3 C 22,5 km/h (4 Bft) 100 %
09.04.2014 17:00 13,1 C 13,1 C 13,3 C 46 % 1023,6 hPa 0,0 l/m 8,0 km/h (2 Bft) W-NW 292 10 min 0,229 mm 236 W/m 1,7 C 12,1 C 16,1 km/h (3 Bft) 100 %
09.04.2014 17:10 13,4 C 13,1 C 13,4 C 46 % 1023,5 hPa 0,0 l/m 8,0 km/h (2 Bft) W-NW 292 10 min 0,000 mm 281 W/m 2,0 C 12,4 C 19,3 km/h (3 Bft) 100 %
09.04.2014 17:20 13,2 C 13,2 C 13,4 C 48 % 1023,4 hPa 0,0 l/m 8,0 km/h (2 Bft) NW 315 0 min 0,000 mm 148 W/m 2,4 C 12,2 C 19,3 km/h (3 Bft) 100 %
09.04.2014 17:30 12,9 C 12,9 C 13,2 C 47 % 1023,4 hPa 0,0 l/m 9,7 km/h (2 Bft) W-NW 292 0 min 0,000 mm 128 W/m 1,9 C 11,0 C 20,9 km/h (4 Bft) 100 %
09.04.2014 17:40 12,8 C 12,8 C 12,9 C 48 % 1023,4 hPa 0,0 l/m 3,2 km/h (1 Bft) W-NW 292 0 min 0,000 mm 111 W/m 2,1 C 12,8 C 16,1 km/h (3 Bft) 100 %
09.04.2014 17:50 12,6 C 12,6 C 12,8 C 47 % 1023,3 hPa 0,0 l/m 6,4 km/h (2 Bft) W-NW 292 0 min 0,000 mm 77 W/m 1,6 C 12,6 C 14,5 km/h (3 Bft) 100 %
09.04.2014 18:00 12,6 C 12,6 C 12,6 C 47 % 1023,4 hPa 0,0 l/m 4,8 km/h (1 Bft) W 270 0 min 0,102 mm 67 W/m 1,6 C 12,6 C 16,1 km/h (3 Bft) 100 %
09.04.2014 18:10 12,4 C 12,4 C 12,6 C 49 % 1023,4 hPa 0,0 l/m 3,2 km/h (1 Bft) W-NW 292 0 min 0,000 mm 74 W/m 2,0 C 12,4 C 11,3 km/h (2 Bft) 100 %
09.04.2014 18:20 12,4 C 12,4 C 12,4 C 48 % 1023,2 hPa 0,0 l/m 4,8 km/h (1 Bft) W-NW 292 0 min 0,000 mm 111 W/m 1,7 C 12,4 C 16,1 km/h (3 Bft) 100 %
09.04.2014 18:30 12,4 C 12,4 C 12,4 C 51 % 1023,2 hPa 0,0 l/m 3,4 km/h (1 Bft) W-NW 292 0 min 0,000 mm 67 W/m 2,6 C 12,4 C 4,8 km/h (1 Bft) 97 %
09.04.2014 18:40 12,3 C 12,3 C 12,4 C 51 % 1023,3 hPa 0,0 l/m 2,2 km/h (1 Bft) NW 317 0 min 0,000 mm 47 W/m 2,5 C 12,3 C 8,0 km/h (2 Bft) 100 %
09.04.2014 18:50 12,3 C 12,3 C 12,3 C 53 % 1023,3 hPa 0,0 l/m 0,4 km/h (0 Bft) NW 326 0 min 0,000 mm 40 W/m 3,0 C 12,3 C 4,8 km/h (1 Bft) 100 %
09.04.2014 19:00 12,2 C 12,2 C 12,3 C 52 % 1023,2 hPa 0,0 l/m 0,2 km/h (0 Bft) NW 318 0 min 0,000 mm 37 W/m 2,6 C 12,2 C 3,2 km/h (1 Bft) 100 %
09.04.2014 19:10 12,1 C 12,1 C 12,2 C 52 % 1023,1 hPa 0,0 l/m 0,0 km/h (0 Bft) NW 305 0 min 0,000 mm 39 W/m 2,5 C 12,1 C 1,6 km/h (1 Bft) 100 %
09.04.2014 19:20 12,1 C 12,1 C 12,1 C 52 % 1023,0 hPa 0,0 l/m 0,0 km/h (0 Bft) NW 305 0 min 0,000 mm 40 W/m 2,5 C 12,1 C 1,6 km/h (1 Bft) 100 %
09.04.2014 19:30 11,9 C 11,9 C 12,1 C 55 % 1023,2 hPa 0,0 l/m 0,0 km/h (0 Bft) NW 304 0 min 0,000 mm 40 W/m 3,2 C 11,9 C 1,6 km/h (1 Bft) 100 %
09.04.2014 19:40 11,8 C 11,8 C 11,9 C 55 % 1023,1 hPa 0,0 l/m 0,0 km/h (0 Bft) NW 315 0 min 0,000 mm 39 W/m 3,1 C 11,8 C 1,6 km/h (1 Bft) 100 %
09.04.2014 19:50 11,6 C 11,6 C 11,9 C 56 % 1023,0 hPa 0,0 l/m 0,0 km/h (0 Bft) NW 304 0 min 0,000 mm 23 W/m 3,1 C 11,6 C 0,0 km/h (0 Bft) 100 %
09.04.2014 20:00 11,4 C 11,4 C 11,6 C 57 % 1023,1 hPa 0,0 l/m 0,0 km/h (0 Bft) NW 304 0 min 0,000 mm 7 W/m 3,2 C 11,4 C 0,0 km/h (0 Bft) 100 %
09.04.2014 20:10 11,2 C 11,2 C 11,4 C 56 % 1023,1 hPa 0,0 l/m 0,0 km/h (0 Bft) N 0 0 min 0,000 mm 7 W/m 2,8 C 11,2 C 0,0 km/h (0 Bft) 100 %
09.04.2014 20:20 10,9 C 10,9 C 11,2 C 56 % 1023,1 hPa 0,0 l/m 0,0 km/h (0 Bft) N 0 0 min 0,000 mm 0 W/m 2,5 C 10,9 C 0,0 km/h (0 Bft) 100 %
09.04.2014 20:30 10,7 C 10,7 C 10,9 C 59 % 1023,1 hPa 0,0 l/m 0,0 km/h (0 Bft) N 0 0 min 0,000 mm 0 W/m 3,0 C 10,7 C 0,0 km/h (0 Bft) 100 %
09.04.2014 20:40 10,4 C 10,4 C 10,7 C 59 % 1023,2 hPa 0,0 l/m 0,0 km/h (0 Bft) N 0 0 min 0,000 mm 0 W/m 2,7 C 10,4 C 0,0 km/h (0 Bft) 100 %
09.04.2014 20:50 10,2 C 10,2 C 10,4 C 61 % 1023,4 hPa 0,0 l/m 0,0 km/h (0 Bft) N 0 0 min 0,000 mm 0 W/m 3,0 C 10,2 C 0,0 km/h (0 Bft) 100 %
09.04.2014 21:00 9,9 C 9,9 C 10,2 C 62 % 1023,3 hPa 0,0 l/m 0,0 km/h (0 Bft) N 0 0 min 0,000 mm 0 W/m 3,0 C 9,9 C 0,0 km/h (0 Bft) 97 %
09.04.2014 21:10 9,7 C 9,7 C 9,9 C 61 % 1023,3 hPa 0,0 l/m 0,0 km/h (0 Bft) NW 315 0 min 0,000 mm 0 W/m 2,5 C 9,7 C 1,6 km/h (1 Bft) 92 %
09.04.2014 21:20 9,7 C 9,6 C 9,7 C 60 % 1023,3 hPa 0,0 l/m 0,0 km/h (0 Bft) NW 315 0 min 0,000 mm 0 W/m 2,3 C 9,7 C 1,6 km/h (1 Bft) 98 %
09.04.2014 21:30 9,7 C 9,7 C 9,7 C 60 % 1023,4 hPa 0,0 l/m 0,0 km/h (0 Bft) W-NW 292 0 min 0,000 mm 0 W/m 2,3 C 9,7 C 3,2 km/h (1 Bft) 97 %
09.04.2014 21:40 9,8 C 9,7 C 9,8 C 60 % 1023,5 hPa 0,0 l/m 0,0 km/h (0 Bft) N 0 0 min 0,000 mm 0 W/m 2,4 C 9,8 C 0,0 km/h (0 Bft) 87 %
09.04.2014 21:50 9,8 C 9,8 C 9,8 C 58 % 1023,4 hPa 0,0 l/m 0,0 km/h (0 Bft) W-NW 292 0 min 0,000 mm 0 W/m 1,9 C 9,8 C 1,6 km/h (1 Bft) 98 %
09.04.2014 22:00 9,9 C 9,8 C 9,9 C 58 % 1023,3 hPa 0,0 l/m 0,0 km/h (0 Bft) W-NW 292 0 min 0,025 mm 0 W/m 2,0 C 9,9 C 1,6 km/h (1 Bft) 95 %
09.04.2014 22:10 10,1 C 9,9 C 10,1 C 57 % 1023,3 hPa 0,0 l/m 0,0 km/h (0 Bft) W-NW 292 0 min 0,000 mm 0 W/m 2,0 C 10,1 C 1,6 km/h (1 Bft) 94 %
09.04.2014 22:20 10,2 C 10,1 C 10,2 C 57 % 1023,3 hPa 0,0 l/m 0,0 km/h (0 Bft) N 0 0 min 0,000 mm 0 W/m 2,1 C 10,2 C 0,0 km/h (0 Bft) 97 %
09.04.2014 22:30 10,1 C 10,1 C 10,2 C 63 % 1023,3 hPa 0,0 l/m 0,0 km/h (0 Bft) W-NW 292 0 min 0,000 mm 0 W/m 3,4 C 10,1 C 1,6 km/h (1 Bft) 98 %
09.04.2014 22:40 9,9 C 9,9 C 10,1 C 62 % 1023,3 hPa 0,0 l/m 0,0 km/h (0 Bft) N 0 0 min 0,000 mm 0 W/m 3,0 C 9,9 C 0,0 km/h (0 Bft) 98 %
09.04.2014 22:50 9,6 C 9,6 C 9,8 C 65 % 1023,3 hPa 0,0 l/m 0,0 km/h (0 Bft) N 0 0 min 0,000 mm 0 W/m 3,4 C 9,6 C 0,0 km/h (0 Bft) 97 %
09.04.2014 23:00 9,6 C 9,5 C 9,6 C 58 % 1023,2 hPa 0,0 l/m 0,0 km/h (0 Bft) W-NW 292 0 min 0,025 mm 0 W/m 1,8 C 9,6 C 1,6 km/h (1 Bft) 98 %
09.04.2014 23:10 9,7 C 9,6 C 9,7 C 59 % 1023,2 hPa 0,0 l/m 0,0 km/h (0 Bft) W-NW 292 0 min 0,000 mm 0 W/m 2,1 C 9,7 C 1,6 km/h (1 Bft) 97 %
09.04.2014 23:20 9,6 C 9,6 C 9,7 C 60 % 1023,2 hPa 0,0 l/m 0,0 km/h (0 Bft) W-SW 247 0 min 0,000 mm 0 W/m 2,2 C 9,6 C 3,2 km/h (1 Bft) 98 %
09.04.2014 23:30 9,3 C 9,3 C 9,6 C 62 % 1023,2 hPa 0,0 l/m 0,0 km/h (0 Bft) W-SW 247 0 min 0,000 mm 0 W/m 2,4 C 9,3 C 3,2 km/h (1 Bft) 97 %
09.04.2014 23:40 9,2 C 9,2 C 9,3 C 62 % 1023,2 hPa 0,0 l/m 0,0 km/h (0 Bft) W-SW 247 0 min 0,000 mm 0 W/m 2,3 C 9,2 C 4,8 km/h (1 Bft) 97 %
09.04.2014 23:50 9,2 C 9,2 C 9,2 C 61 % 1023,2 hPa 0,0 l/m 0,0 km/h (0 Bft) W-SW 247 0 min 0,000 mm 0 W/m 2,1 C 9,2 C 3,2 km/h (1 Bft) 98 %
_ Min-Zeit 07:20 07:20 07:30 15:30 00:00 - 02:00 - - - - - 13:00 01:10 19:50 21:40
Minimum _ 3,8 C 3,8 C 3,8 C 42 % 1022,3 hPa - 0,0 km/h (0 Bft) - - - - - 1,2 C -0,1 C 0,0 km/h (0 Bft) 87 %
_ Max-Zeit 15:30 15:40 15:30 08:30 09:50 01:10 01:10 - - 08:30 16:00 14:10 10:20 16:40 01:10 00:20
Maximum _ 14,1 C 14,1 C 14,1 C 87 % 1025,9 hPa 0,4 l/m 19,3 km/h
NW (3 Bft)
- - 10 min 0,381 mm 868 W/m 5,6 C 13,4 C 41,8 km/h
NW (6 Bft)
100 %
Durchschnitt _ 9,0 C 8,9 C 9,1 C 65 % 1024,1 hPa #0,4 l/m 4,1 km/h (1 Bft) W-NW - #8:50 h #2,337 mm 361 W/m 2,5 C 8,4 C 11,9 km/h (2 Bft) 99 %
PRIVATE WETTERSTATION BILLIGHEIM-ALLFELD - www.neckar-odenwald-wetter.de - Holger Sonntag